sensor_id;sensor_type;location;lat;lon;timestamp;P1;durP1;ratioP1;P2;durP2;ratioP2
5811;SDS011;2932;52.400;9.558;2023-08-21T00:01:55;3.00;;;1.40;;
5811;SDS011;2932;52.400;9.558;2023-08-21T00:04:20;3.85;;;1.60;;
5811;SDS011;2932;52.400;9.558;2023-08-21T00:06:45;2.17;;;1.35;;
5811;SDS011;2932;52.400;9.558;2023-08-21T00:09:11;4.22;;;1.45;;
5811;SDS011;2932;52.400;9.558;2023-08-21T00:11:36;5.05;;;1.50;;
5811;SDS011;2932;52.400;9.558;2023-08-21T00:14:01;2.67;;;1.50;;
5811;SDS011;2932;52.400;9.558;2023-08-21T00:16:27;2.45;;;1.75;;
5811;SDS011;2932;52.400;9.558;2023-08-21T00:18:53;10.13;;;4.35;;
5811;SDS011;2932;52.400;9.558;2023-08-21T00:21:19;10.00;;;4.03;;
5811;SDS011;2932;52.400;9.558;2023-08-21T00:23:44;5.70;;;2.47;;
5811;SDS011;2932;52.400;9.558;2023-08-21T00:26:10;4.03;;;1.92;;
5811;SDS011;2932;52.400;9.558;2023-08-21T00:28:35;3.55;;;2.17;;
5811;SDS011;2932;52.400;9.558;2023-08-21T00:31:01;3.35;;;2.10;;
5811;SDS011;2932;52.400;9.558;2023-08-21T00:33:28;6.00;;;1.85;;
5811;SDS011;2932;52.400;9.558;2023-08-21T00:35:55;4.15;;;2.60;;
5811;SDS011;2932;52.400;9.558;2023-08-21T00:38:20;4.00;;;1.90;;
5811;SDS011;2932;52.400;9.558;2023-08-21T00:40:45;3.35;;;1.90;;
5811;SDS011;2932;52.400;9.558;2023-08-21T00:43:11;3.67;;;1.90;;
5811;SDS011;2932;52.400;9.558;2023-08-21T00:45:36;5.35;;;1.80;;
5811;SDS011;2932;52.400;9.558;2023-08-21T00:48:06;4.93;;;2.08;;
5811;SDS011;2932;52.400;9.558;2023-08-21T00:50:32;8.50;;;2.17;;
5811;SDS011;2932;52.400;9.558;2023-08-21T00:52:57;3.35;;;1.83;;
5811;SDS011;2932;52.400;9.558;2023-08-21T00:55:22;5.53;;;2.03;;
5811;SDS011;2932;52.400;9.558;2023-08-21T00:57:49;8.38;;;1.73;;
5811;SDS011;2932;52.400;9.558;2023-08-21T01:00:14;7.65;;;1.77;;
5811;SDS011;2932;52.400;9.558;2023-08-21T01:02:40;4.18;;;1.83;;
5811;SDS011;2932;52.400;9.558;2023-08-21T01:05:07;3.90;;;1.60;;
5811;SDS011;2932;52.400;9.558;2023-08-21T01:07:35;3.17;;;1.65;;
5811;SDS011;2932;52.400;9.558;2023-08-21T01:15:10;2.92;;;1.80;;
5811;SDS011;2932;52.400;9.558;2023-08-21T01:17:38;4.97;;;1.70;;
5811;SDS011;2932;52.400;9.558;2023-08-21T01:20:04;4.53;;;1.92;;
5811;SDS011;2932;52.400;9.558;2023-08-21T01:22:40;6.22;;;2.28;;
5811;SDS011;2932;52.400;9.558;2023-08-21T01:25:10;6.03;;;1.80;;
5811;SDS011;2932;52.400;9.558;2023-08-21T01:27:36;2.35;;;1.55;;
5811;SDS011;2932;52.400;9.558;2023-08-21T01:30:02;2.53;;;1.35;;
5811;SDS011;2932;52.400;9.558;2023-08-21T01:34:58;4.80;;;1.77;;
5811;SDS011;2932;52.400;9.558;2023-08-21T01:37:24;4.03;;;1.88;;
5811;SDS011;2932;52.400;9.558;2023-08-21T01:39:51;3.65;;;1.77;;
5811;SDS011;2932;52.400;9.558;2023-08-21T01:42:17;5.53;;;2.20;;
5811;SDS011;2932;52.400;9.558;2023-08-21T01:44:42;6.70;;;1.67;;
5811;SDS011;2932;52.400;9.558;2023-08-21T01:47:10;4.30;;;1.70;;
5811;SDS011;2932;52.400;9.558;2023-08-21T01:49:36;4.75;;;2.05;;
5811;SDS011;2932;52.400;9.558;2023-08-21T01:52:01;5.07;;;1.83;;
5811;SDS011;2932;52.400;9.558;2023-08-21T01:54:27;2.63;;;2.03;;
5811;SDS011;2932;52.400;9.558;2023-08-21T01:56:52;4.90;;;2.00;;
5811;SDS011;2932;52.400;9.558;2023-08-21T01:59:17;4.10;;;1.63;;
5811;SDS011;2932;52.400;9.558;2023-08-21T02:01:43;3.03;;;1.80;;
5811;SDS011;2932;52.400;9.558;2023-08-21T02:04:08;5.03;;;1.50;;
5811;SDS011;2932;52.400;9.558;2023-08-21T02:06:33;5.45;;;1.67;;
5811;SDS011;2932;52.400;9.558;2023-08-21T02:08:58;5.00;;;1.80;;
5811;SDS011;2932;52.400;9.558;2023-08-21T02:11:24;3.67;;;1.38;;
5811;SDS011;2932;52.400;9.558;2023-08-21T02:13:49;4.22;;;1.50;;
5811;SDS011;2932;52.400;9.558;2023-08-21T02:16:15;7.05;;;1.67;;
5811;SDS011;2932;52.400;9.558;2023-08-21T02:18:40;3.67;;;1.50;;
5811;SDS011;2932;52.400;9.558;2023-08-21T02:21:05;3.33;;;1.60;;
5811;SDS011;2932;52.400;9.558;2023-08-21T02:23:31;3.78;;;1.58;;
5811;SDS011;2932;52.400;9.558;2023-08-21T02:25:56;2.70;;;1.35;;
5811;SDS011;2932;52.400;9.558;2023-08-21T02:28:21;4.78;;;1.42;;
5811;SDS011;2932;52.400;9.558;2023-08-21T02:30:47;4.82;;;1.40;;
5811;SDS011;2932;52.400;9.558;2023-08-21T02:33:12;3.50;;;1.30;;
5811;SDS011;2932;52.400;9.558;2023-08-21T02:35:38;2.15;;;1.73;;
5811;SDS011;2932;52.400;9.558;2023-08-21T02:38:04;2.55;;;1.75;;
5811;SDS011;2932;52.400;9.558;2023-08-21T02:40:29;4.18;;;1.67;;
5811;SDS011;2932;52.400;9.558;2023-08-21T02:42:54;3.95;;;1.50;;
5811;SDS011;2932;52.400;9.558;2023-08-21T02:45:20;3.50;;;1.80;;
5811;SDS011;2932;52.400;9.558;2023-08-21T02:47:45;2.90;;;1.42;;
5811;SDS011;2932;52.400;9.558;2023-08-21T02:50:10;5.82;;;1.67;;
5811;SDS011;2932;52.400;9.558;2023-08-21T02:52:36;3.90;;;1.80;;
5811;SDS011;2932;52.400;9.558;2023-08-21T02:55:02;6.05;;;1.60;;
5811;SDS011;2932;52.400;9.558;2023-08-21T02:57:28;3.85;;;1.70;;
5811;SDS011;2932;52.400;9.558;2023-08-21T02:59:54;2.97;;;1.85;;
5811;SDS011;2932;52.400;9.558;2023-08-21T03:02:20;3.72;;;1.83;;
5811;SDS011;2932;52.400;9.558;2023-08-21T03:04:46;6.10;;;1.83;;
5811;SDS011;2932;52.400;9.558;2023-08-21T03:07:11;4.10;;;1.75;;
5811;SDS011;2932;52.400;9.558;2023-08-21T03:09:37;2.50;;;1.45;;
5811;SDS011;2932;52.400;9.558;2023-08-21T03:12:05;4.10;;;1.60;;
5811;SDS011;2932;52.400;9.558;2023-08-21T03:14:30;3.08;;;1.58;;
5811;SDS011;2932;52.400;9.558;2023-08-21T03:16:56;2.88;;;1.50;;
5811;SDS011;2932;52.400;9.558;2023-08-21T03:19:21;4.43;;;1.70;;
5811;SDS011;2932;52.400;9.558;2023-08-21T03:21:46;5.10;;;1.75;;
5811;SDS011;2932;52.400;9.558;2023-08-21T03:24:12;1.58;;;1.45;;
5811;SDS011;2932;52.400;9.558;2023-08-21T03:26:37;2.72;;;1.50;;
5811;SDS011;2932;52.400;9.558;2023-08-21T03:29:02;3.20;;;1.48;;
5811;SDS011;2932;52.400;9.558;2023-08-21T03:31:28;7.05;;;1.70;;
5811;SDS011;2932;52.400;9.558;2023-08-21T03:33:54;1.67;;;1.20;;
5811;SDS011;2932;52.400;9.558;2023-08-21T03:36:20;3.13;;;1.50;;
5811;SDS011;2932;52.400;9.558;2023-08-21T03:38:45;2.45;;;1.48;;
5811;SDS011;2932;52.400;9.558;2023-08-21T03:41:11;3.45;;;1.58;;
5811;SDS011;2932;52.400;9.558;2023-08-21T03:43:36;3.83;;;1.52;;
5811;SDS011;2932;52.400;9.558;2023-08-21T03:46:01;5.15;;;1.83;;
5811;SDS011;2932;52.400;9.558;2023-08-21T03:48:27;3.05;;;1.77;;
5811;SDS011;2932;52.400;9.558;2023-08-21T03:50:55;4.78;;;1.73;;
5811;SDS011;2932;52.400;9.558;2023-08-21T03:53:20;3.75;;;1.63;;
5811;SDS011;2932;52.400;9.558;2023-08-21T03:55:46;6.45;;;1.85;;
5811;SDS011;2932;52.400;9.558;2023-08-21T03:58:12;2.80;;;1.30;;
5811;SDS011;2932;52.400;9.558;2023-08-21T04:00:38;1.98;;;1.50;;
5811;SDS011;2932;52.400;9.558;2023-08-21T04:03:03;2.03;;;1.30;;
5811;SDS011;2932;52.400;9.558;2023-08-21T04:05:29;4.15;;;1.30;;
5811;SDS011;2932;52.400;9.558;2023-08-21T04:07:54;2.72;;;1.42;;
5811;SDS011;2932;52.400;9.558;2023-08-21T04:10:19;3.88;;;1.58;;
5811;SDS011;2932;52.400;9.558;2023-08-21T04:12:45;5.50;;;1.40;;
5811;SDS011;2932;52.400;9.558;2023-08-21T04:15:10;3.05;;;1.83;;
5811;SDS011;2932;52.400;9.558;2023-08-21T04:17:35;4.45;;;1.58;;
5811;SDS011;2932;52.400;9.558;2023-08-21T04:20:02;4.68;;;1.35;;
5811;SDS011;2932;52.400;9.558;2023-08-21T04:22:27;4.03;;;1.45;;
5811;SDS011;2932;52.400;9.558;2023-08-21T04:24:53;3.00;;;1.50;;
5811;SDS011;2932;52.400;9.558;2023-08-21T04:27:18;5.07;;;1.35;;
5811;SDS011;2932;52.400;9.558;2023-08-21T04:29:43;2.28;;;1.50;;
5811;SDS011;2932;52.400;9.558;2023-08-21T04:32:09;3.05;;;1.30;;
5811;SDS011;2932;52.400;9.558;2023-08-21T04:34:34;4.90;;;1.20;;
5811;SDS011;2932;52.400;9.558;2023-08-21T04:37:00;2.00;;;1.42;;
5811;SDS011;2932;52.400;9.558;2023-08-21T04:39:25;5.95;;;1.88;;
5811;SDS011;2932;52.400;9.558;2023-08-21T04:41:51;3.08;;;1.50;;
5811;SDS011;2932;52.400;9.558;2023-08-21T04:44:16;2.35;;;1.45;;
5811;SDS011;2932;52.400;9.558;2023-08-21T04:46:42;2.88;;;1.20;;
5811;SDS011;2932;52.400;9.558;2023-08-21T04:49:07;3.95;;;1.58;;
5811;SDS011;2932;52.400;9.558;2023-08-21T04:51:33;3.08;;;1.45;;
5811;SDS011;2932;52.400;9.558;2023-08-21T04:53:59;3.95;;;1.63;;
5811;SDS011;2932;52.400;9.558;2023-08-21T04:56:24;6.75;;;1.65;;
5811;SDS011;2932;52.400;9.558;2023-08-21T04:58:50;6.00;;;1.90;;
5811;SDS011;2932;52.400;9.558;2023-08-21T05:01:15;3.33;;;1.35;;
5811;SDS011;2932;52.400;9.558;2023-08-21T05:03:41;4.82;;;1.67;;
5811;SDS011;2932;52.400;9.558;2023-08-21T05:06:06;2.53;;;1.30;;
5811;SDS011;2932;52.400;9.558;2023-08-21T05:08:31;1.45;;;1.30;;
5811;SDS011;2932;52.400;9.558;2023-08-21T05:11:00;5.65;;;1.50;;
5811;SDS011;2932;52.400;9.558;2023-08-21T05:13:26;1.50;;;1.40;;
5811;SDS011;2932;52.400;9.558;2023-08-21T05:15:55;4.75;;;1.55;;
5811;SDS011;2932;52.400;9.558;2023-08-21T05:18:22;2.65;;;1.50;;
5811;SDS011;2932;52.400;9.558;2023-08-21T05:20:49;4.60;;;1.50;;
5811;SDS011;2932;52.400;9.558;2023-08-21T05:23:15;2.45;;;1.15;;
5811;SDS011;2932;52.400;9.558;2023-08-21T05:25:42;4.43;;;1.85;;
5811;SDS011;2932;52.400;9.558;2023-08-21T05:28:08;4.45;;;1.60;;
5811;SDS011;2932;52.400;9.558;2023-08-21T05:30:35;4.22;;;1.40;;
5811;SDS011;2932;52.400;9.558;2023-08-21T05:33:01;3.25;;;1.33;;
5811;SDS011;2932;52.400;9.558;2023-08-21T05:35:27;2.95;;;1.60;;
5811;SDS011;2932;52.400;9.558;2023-08-21T05:37:52;2.42;;;1.30;;
5811;SDS011;2932;52.400;9.558;2023-08-21T05:40:18;5.43;;;1.90;;
5811;SDS011;2932;52.400;9.558;2023-08-21T05:42:43;3.50;;;1.70;;
5811;SDS011;2932;52.400;9.558;2023-08-21T05:45:09;1.98;;;1.40;;
5811;SDS011;2932;52.400;9.558;2023-08-21T05:47:34;9.30;;;2.08;;
5811;SDS011;2932;52.400;9.558;2023-08-21T05:49:59;3.97;;;1.40;;
5811;SDS011;2932;52.400;9.558;2023-08-21T05:52:25;2.58;;;1.60;;
5811;SDS011;2932;52.400;9.558;2023-08-21T05:54:51;4.90;;;1.65;;
5811;SDS011;2932;52.400;9.558;2023-08-21T05:57:16;1.73;;;1.50;;
5811;SDS011;2932;52.400;9.558;2023-08-21T05:59:45;3.90;;;1.65;;
5811;SDS011;2932;52.400;9.558;2023-08-21T06:02:12;4.53;;;1.63;;
5811;SDS011;2932;52.400;9.558;2023-08-21T06:04:40;5.00;;;2.05;;
5811;SDS011;2932;52.400;9.558;2023-08-21T06:07:06;3.72;;;1.63;;
5811;SDS011;2932;52.400;9.558;2023-08-21T06:09:31;8.45;;;1.80;;
5811;SDS011;2932;52.400;9.558;2023-08-21T06:11:59;5.78;;;1.83;;
5811;SDS011;2932;52.400;9.558;2023-08-21T06:14:25;4.60;;;1.70;;
5811;SDS011;2932;52.400;9.558;2023-08-21T06:16:57;3.90;;;1.73;;
5811;SDS011;2932;52.400;9.558;2023-08-21T06:19:24;5.13;;;2.17;;
5811;SDS011;2932;52.400;9.558;2023-08-21T06:21:50;3.47;;;1.50;;
5811;SDS011;2932;52.400;9.558;2023-08-21T06:24:15;1.73;;;1.45;;
5811;SDS011;2932;52.400;9.558;2023-08-21T06:26:41;3.22;;;1.60;;
5811;SDS011;2932;52.400;9.558;2023-08-21T06:29:06;4.18;;;1.88;;
5811;SDS011;2932;52.400;9.558;2023-08-21T06:31:31;3.55;;;1.55;;
5811;SDS011;2932;52.400;9.558;2023-08-21T06:33:56;6.70;;;1.92;;
5811;SDS011;2932;52.400;9.558;2023-08-21T06:36:22;3.75;;;1.60;;
5811;SDS011;2932;52.400;9.558;2023-08-21T06:38:47;4.40;;;2.10;;
5811;SDS011;2932;52.400;9.558;2023-08-21T06:41:13;5.88;;;2.35;;
5811;SDS011;2932;52.400;9.558;2023-08-21T06:43:38;5.63;;;1.60;;
5811;SDS011;2932;52.400;9.558;2023-08-21T06:46:03;4.60;;;1.85;;
5811;SDS011;2932;52.400;9.558;2023-08-21T06:48:29;2.42;;;1.52;;
5811;SDS011;2932;52.400;9.558;2023-08-21T06:50:54;3.10;;;1.67;;
5811;SDS011;2932;52.400;9.558;2023-08-21T06:53:19;3.33;;;1.45;;
5811;SDS011;2932;52.400;9.558;2023-08-21T06:55:45;7.65;;;1.73;;
5811;SDS011;2932;52.400;9.558;2023-08-21T06:58:11;4.07;;;1.85;;
5811;SDS011;2932;52.400;9.558;2023-08-21T07:00:36;4.22;;;1.80;;
5811;SDS011;2932;52.400;9.558;2023-08-21T07:03:01;3.03;;;1.50;;
5811;SDS011;2932;52.400;9.558;2023-08-21T07:05:28;4.57;;;1.88;;
5811;SDS011;2932;52.400;9.558;2023-08-21T07:07:53;3.35;;;1.65;;
5811;SDS011;2932;52.400;9.558;2023-08-21T07:10:20;1.55;;;1.13;;
5811;SDS011;2932;52.400;9.558;2023-08-21T07:12:45;4.07;;;1.40;;
5811;SDS011;2932;52.400;9.558;2023-08-21T07:15:11;3.97;;;1.27;;
5811;SDS011;2932;52.400;9.558;2023-08-21T07:17:36;3.72;;;1.52;;
5811;SDS011;2932;52.400;9.558;2023-08-21T07:20:02;2.88;;;1.25;;
5811;SDS011;2932;52.400;9.558;2023-08-21T07:22:29;2.63;;;1.73;;
5811;SDS011;2932;52.400;9.558;2023-08-21T07:24:54;4.03;;;1.38;;
5811;SDS011;2932;52.400;9.558;2023-08-21T07:27:19;4.55;;;1.90;;
5811;SDS011;2932;52.400;9.558;2023-08-21T07:29:45;6.05;;;1.58;;
5811;SDS011;2932;52.400;9.558;2023-08-21T07:32:10;4.10;;;1.83;;
5811;SDS011;2932;52.400;9.558;2023-08-21T07:34:35;3.90;;;1.40;;
5811;SDS011;2932;52.400;9.558;2023-08-21T07:37:01;5.05;;;1.63;;
5811;SDS011;2932;52.400;9.558;2023-08-21T07:39:26;3.97;;;1.42;;
5811;SDS011;2932;52.400;9.558;2023-08-21T07:41:51;6.50;;;1.50;;
5811;SDS011;2932;52.400;9.558;2023-08-21T07:44:18;3.45;;;1.25;;
5811;SDS011;2932;52.400;9.558;2023-08-21T07:46:44;5.28;;;1.67;;
5811;SDS011;2932;52.400;9.558;2023-08-21T07:49:09;2.90;;;1.27;;
5811;SDS011;2932;52.400;9.558;2023-08-21T07:51:35;5.35;;;1.60;;
5811;SDS011;2932;52.400;9.558;2023-08-21T07:54:01;3.20;;;1.60;;
5811;SDS011;2932;52.400;9.558;2023-08-21T07:56:26;2.35;;;1.30;;
5811;SDS011;2932;52.400;9.558;2023-08-21T07:58:52;6.63;;;1.48;;
5811;SDS011;2932;52.400;9.558;2023-08-21T08:01:17;5.18;;;1.30;;
5811;SDS011;2932;52.400;9.558;2023-08-21T08:03:42;5.55;;;1.65;;
5811;SDS011;2932;52.400;9.558;2023-08-21T08:06:08;3.60;;;1.52;;
5811;SDS011;2932;52.400;9.558;2023-08-21T08:08:33;4.95;;;2.30;;
5811;SDS011;2932;52.400;9.558;2023-08-21T08:11:02;4.65;;;1.90;;
5811;SDS011;2932;52.400;9.558;2023-08-21T08:13:28;3.10;;;1.23;;
5811;SDS011;2932;52.400;9.558;2023-08-21T08:15:57;4.40;;;1.40;;
5811;SDS011;2932;52.400;9.558;2023-08-21T08:18:22;4.72;;;1.70;;
5811;SDS011;2932;52.400;9.558;2023-08-21T08:20:48;4.88;;;1.67;;
5811;SDS011;2932;52.400;9.558;2023-08-21T08:23:13;3.67;;;1.33;;
5811;SDS011;2932;52.400;9.558;2023-08-21T08:25:39;3.85;;;1.30;;
5811;SDS011;2932;52.400;9.558;2023-08-21T08:28:05;3.03;;;1.30;;
5811;SDS011;2932;52.400;9.558;2023-08-21T08:30:30;5.25;;;1.75;;
5811;SDS011;2932;52.400;9.558;2023-08-21T08:32:56;4.07;;;1.50;;
5811;SDS011;2932;52.400;9.558;2023-08-21T08:35:21;4.60;;;1.33;;
5811;SDS011;2932;52.400;9.558;2023-08-21T08:37:46;6.20;;;1.80;;
5811;SDS011;2932;52.400;9.558;2023-08-21T08:40:12;3.00;;;1.30;;
5811;SDS011;2932;52.400;9.558;2023-08-21T08:42:37;6.88;;;1.50;;
5811;SDS011;2932;52.400;9.558;2023-08-21T08:45:03;3.78;;;1.60;;
5811;SDS011;2932;52.400;9.558;2023-08-21T08:47:31;4.57;;;1.50;;
5811;SDS011;2932;52.400;9.558;2023-08-21T08:49:58;2.90;;;1.40;;
5811;SDS011;2932;52.400;9.558;2023-08-21T08:52:25;5.82;;;1.52;;
5811;SDS011;2932;52.400;9.558;2023-08-21T08:54:52;4.22;;;1.40;;
5811;SDS011;2932;52.400;9.558;2023-08-21T08:57:22;3.70;;;1.48;;
5811;SDS011;2932;52.400;9.558;2023-08-21T08:59:48;4.03;;;1.73;;
5811;SDS011;2932;52.400;9.558;2023-08-21T09:02:13;5.00;;;1.50;;
5811;SDS011;2932;52.400;9.558;2023-08-21T09:04:38;1.80;;;1.25;;
5811;SDS011;2932;52.400;9.558;2023-08-21T09:07:07;3.72;;;1.42;;
5811;SDS011;2932;52.400;9.558;2023-08-21T09:09:37;2.17;;;1.20;;
5811;SDS011;2932;52.400;9.558;2023-08-21T09:12:08;3.85;;;1.40;;
5811;SDS011;2932;52.400;9.558;2023-08-21T09:14:35;4.18;;;1.42;;
5811;SDS011;2932;52.400;9.558;2023-08-21T09:17:01;4.32;;;1.55;;
5811;SDS011;2932;52.400;9.558;2023-08-21T09:19:28;6.45;;;1.60;;
5811;SDS011;2932;52.400;9.558;2023-08-21T09:21:54;3.08;;;1.27;;
5811;SDS011;2932;52.400;9.558;2023-08-21T09:24:19;3.45;;;1.42;;
5811;SDS011;2932;52.400;9.558;2023-08-21T09:26:44;5.90;;;1.40;;
5811;SDS011;2932;52.400;9.558;2023-08-21T09:29:10;4.72;;;1.35;;
5811;SDS011;2932;52.400;9.558;2023-08-21T09:31:36;6.57;;;1.60;;
5811;SDS011;2932;52.400;9.558;2023-08-21T09:34:02;2.35;;;1.17;;
5811;SDS011;2932;52.400;9.558;2023-08-21T09:36:30;2.90;;;1.15;;
5811;SDS011;2932;52.400;9.558;2023-08-21T09:38:56;3.67;;;1.20;;
5811;SDS011;2932;52.400;9.558;2023-08-21T09:41:21;2.10;;;1.00;;
5811;SDS011;2932;52.400;9.558;2023-08-21T09:43:48;2.38;;;1.02;;
5811;SDS011;2932;52.400;9.558;2023-08-21T09:46:14;3.08;;;1.35;;
5811;SDS011;2932;52.400;9.558;2023-08-21T09:48:41;2.75;;;1.15;;
5811;SDS011;2932;52.400;9.558;2023-08-21T09:51:08;4.75;;;1.10;;
5811;SDS011;2932;52.400;9.558;2023-08-21T09:53:34;4.85;;;1.20;;
5811;SDS011;2932;52.400;9.558;2023-08-21T09:56:00;11.00;;;5.57;;
5811;SDS011;2932;52.400;9.558;2023-08-21T09:58:28;7.60;;;3.42;;
5811;SDS011;2932;52.400;9.558;2023-08-21T10:00:55;3.83;;;1.60;;
5811;SDS011;2932;52.400;9.558;2023-08-21T10:03:23;2.58;;;1.42;;
5811;SDS011;2932;52.400;9.558;2023-08-21T10:05:50;3.58;;;1.00;;
5811;SDS011;2932;52.400;9.558;2023-08-21T10:08:18;4.10;;;1.33;;
5811;SDS011;2932;52.400;9.558;2023-08-21T10:10:48;3.42;;;1.27;;
5811;SDS011;2932;52.400;9.558;2023-08-21T10:13:13;2.13;;;1.10;;
5811;SDS011;2932;52.400;9.558;2023-08-21T10:15:39;3.95;;;1.00;;
5811;SDS011;2932;52.400;9.558;2023-08-21T10:21:15;1.83;;;0.85;;
5811;SDS011;2932;52.400;9.558;2023-08-21T10:23:42;2.15;;;1.02;;
5811;SDS011;2932;52.400;9.558;2023-08-21T10:26:11;1.90;;;0.90;;
5811;SDS011;2932;52.400;9.558;2023-08-21T10:28:49;2.45;;;0.90;;
5811;SDS011;2932;52.400;9.558;2023-08-21T10:31:25;2.97;;;0.80;;
5811;SDS011;2932;52.400;9.558;2023-08-21T10:34:05;2.03;;;1.00;;
5811;SDS011;2932;52.400;9.558;2023-08-21T10:39:18;2.25;;;1.02;;
5811;SDS011;2932;52.400;9.558;2023-08-21T10:41:53;2.65;;;1.20;;
5811;SDS011;2932;52.400;9.558;2023-08-21T10:49:49;3.22;;;1.10;;
5811;SDS011;2932;52.400;9.558;2023-08-21T10:52:26;3.13;;;0.90;;
5811;SDS011;2932;52.400;9.558;2023-08-21T10:54:56;3.10;;;0.85;;
5811;SDS011;2932;52.400;9.558;2023-08-21T10:57:24;3.08;;;1.17;;
5811;SDS011;2932;52.400;9.558;2023-08-21T11:02:15;1.90;;;1.10;;
5811;SDS011;2932;52.400;9.558;2023-08-21T11:04:41;2.58;;;0.93;;
5811;SDS011;2932;52.400;9.558;2023-08-21T11:07:07;3.42;;;1.10;;
5811;SDS011;2932;52.400;9.558;2023-08-21T11:09:35;2.10;;;0.85;;
5811;SDS011;2932;52.400;9.558;2023-08-21T11:12:08;3.00;;;1.50;;
5811;SDS011;2932;52.400;9.558;2023-08-21T11:14:35;1.58;;;0.80;;
5811;SDS011;2932;52.400;9.558;2023-08-21T11:17:00;5.15;;;1.40;;
5811;SDS011;2932;52.400;9.558;2023-08-21T11:19:26;3.20;;;1.00;;
5811;SDS011;2932;52.400;9.558;2023-08-21T11:21:51;2.88;;;1.08;;
5811;SDS011;2932;52.400;9.558;2023-08-21T11:24:17;3.17;;;1.20;;
5811;SDS011;2932;52.400;9.558;2023-08-21T11:26:42;3.47;;;1.10;;
5811;SDS011;2932;52.400;9.558;2023-08-21T11:29:07;4.22;;;1.00;;
5811;SDS011;2932;52.400;9.558;2023-08-21T11:31:33;1.38;;;0.88;;
5811;SDS011;2932;52.400;9.558;2023-08-21T11:33:58;2.25;;;0.90;;
5811;SDS011;2932;52.400;9.558;2023-08-21T11:36:23;2.25;;;0.88;;
5811;SDS011;2932;52.400;9.558;2023-08-21T11:38:58;2.20;;;0.90;;
5811;SDS011;2932;52.400;9.558;2023-08-21T11:41:25;3.22;;;0.90;;
5811;SDS011;2932;52.400;9.558;2023-08-21T11:43:50;3.95;;;1.17;;
5811;SDS011;2932;52.400;9.558;2023-08-21T11:46:16;4.70;;;0.90;;
5811;SDS011;2932;52.400;9.558;2023-08-21T11:48:43;3.00;;;1.38;;
5811;SDS011;2932;52.400;9.558;2023-08-21T11:51:10;2.58;;;0.90;;
5811;SDS011;2932;52.400;9.558;2023-08-21T11:53:39;3.13;;;1.10;;
5811;SDS011;2932;52.400;9.558;2023-08-21T11:56:10;2.65;;;0.80;;
5811;SDS011;2932;52.400;9.558;2023-08-21T11:58:38;3.05;;;0.98;;
5811;SDS011;2932;52.400;9.558;2023-08-21T12:01:05;2.90;;;1.20;;
5811;SDS011;2932;52.400;9.558;2023-08-21T12:03:35;2.58;;;1.08;;
5811;SDS011;2932;52.400;9.558;2023-08-21T12:06:08;3.80;;;1.00;;
5811;SDS011;2932;52.400;9.558;2023-08-21T12:08:34;3.33;;;1.23;;
5811;SDS011;2932;52.400;9.558;2023-08-21T12:11:00;3.10;;;1.23;;
5811;SDS011;2932;52.400;9.558;2023-08-21T12:13:26;3.85;;;1.15;;
5811;SDS011;2932;52.400;9.558;2023-08-21T12:15:52;4.03;;;1.20;;
5811;SDS011;2932;52.400;9.558;2023-08-21T12:18:17;4.00;;;1.10;;
5811;SDS011;2932;52.400;9.558;2023-08-21T12:20:42;2.67;;;1.08;;
5811;SDS011;2932;52.400;9.558;2023-08-21T12:23:08;2.97;;;1.10;;
5811;SDS011;2932;52.400;9.558;2023-08-21T12:25:33;2.03;;;0.70;;
5811;SDS011;2932;52.400;9.558;2023-08-21T12:27:58;3.00;;;0.90;;
5811;SDS011;2932;52.400;9.558;2023-08-21T12:30:24;3.03;;;1.17;;
5811;SDS011;2932;52.400;9.558;2023-08-21T12:32:50;2.42;;;1.27;;
5811;SDS011;2932;52.400;9.558;2023-08-21T12:35:15;2.03;;;1.50;;
5811;SDS011;2932;52.400;9.558;2023-08-21T12:37:41;4.72;;;1.20;;
5811;SDS011;2932;52.400;9.558;2023-08-21T12:40:06;2.20;;;1.05;;
5811;SDS011;2932;52.400;9.558;2023-08-21T12:42:33;2.97;;;1.27;;
5811;SDS011;2932;52.400;9.558;2023-08-21T12:44:58;2.28;;;1.00;;
5811;SDS011;2932;52.400;9.558;2023-08-21T12:47:23;2.80;;;0.90;;
5811;SDS011;2932;52.400;9.558;2023-08-21T12:49:49;3.65;;;1.27;;
5811;SDS011;2932;52.400;9.558;2023-08-21T12:52:14;1.92;;;1.13;;
5811;SDS011;2932;52.400;9.558;2023-08-21T12:54:40;1.58;;;1.20;;
5811;SDS011;2932;52.400;9.558;2023-08-21T12:57:05;2.00;;;0.93;;
5811;SDS011;2932;52.400;9.558;2023-08-21T12:59:31;2.40;;;0.90;;
5811;SDS011;2932;52.400;9.558;2023-08-21T13:01:58;2.95;;;1.50;;
5811;SDS011;2932;52.400;9.558;2023-08-21T13:04:25;2.55;;;1.30;;
5811;SDS011;2932;52.400;9.558;2023-08-21T13:06:50;2.70;;;1.15;;
5811;SDS011;2932;52.400;9.558;2023-08-21T13:09:15;3.25;;;1.10;;
5811;SDS011;2932;52.400;9.558;2023-08-21T13:11:41;1.55;;;0.90;;
5811;SDS011;2932;52.400;9.558;2023-08-21T13:14:06;3.67;;;1.33;;
5811;SDS011;2932;52.400;9.558;2023-08-21T13:16:31;2.17;;;0.90;;
5811;SDS011;2932;52.400;9.558;2023-08-21T13:18:57;2.53;;;1.10;;
5811;SDS011;2932;52.400;9.558;2023-08-21T13:21:22;3.08;;;1.00;;
5811;SDS011;2932;52.400;9.558;2023-08-21T13:23:47;2.50;;;1.27;;
5811;SDS011;2932;52.400;9.558;2023-08-21T13:26:13;2.25;;;0.80;;
5811;SDS011;2932;52.400;9.558;2023-08-21T13:28:38;3.25;;;0.73;;
5811;SDS011;2932;52.400;9.558;2023-08-21T13:31:03;1.98;;;0.73;;
5811;SDS011;2932;52.400;9.558;2023-08-21T13:33:29;2.88;;;0.80;;
5811;SDS011;2932;52.400;9.558;2023-08-21T13:35:55;3.50;;;0.88;;
5811;SDS011;2932;52.400;9.558;2023-08-21T13:38:20;2.40;;;0.80;;
5811;SDS011;2932;52.400;9.558;2023-08-21T13:40:46;2.60;;;0.70;;
5811;SDS011;2932;52.400;9.558;2023-08-21T13:43:11;3.67;;;0.95;;
5811;SDS011;2932;52.400;9.558;2023-08-21T13:45:37;3.13;;;0.75;;
5811;SDS011;2932;52.400;9.558;2023-08-21T13:48:04;3.60;;;0.90;;
5811;SDS011;2932;52.400;9.558;2023-08-21T13:50:30;2.60;;;0.70;;
5811;SDS011;2932;52.400;9.558;2023-08-21T13:52:55;0.93;;;0.60;;
5811;SDS011;2932;52.400;9.558;2023-08-21T13:55:24;2.58;;;0.73;;
5811;SDS011;2932;52.400;9.558;2023-08-21T13:57:49;0.85;;;0.80;;
5811;SDS011;2932;52.400;9.558;2023-08-21T14:00:14;2.58;;;0.80;;
5811;SDS011;2932;52.400;9.558;2023-08-21T14:02:42;1.58;;;0.60;;
5811;SDS011;2932;52.400;9.558;2023-08-21T14:05:08;2.08;;;0.95;;
5811;SDS011;2932;52.400;9.558;2023-08-21T14:07:35;3.42;;;0.80;;
5811;SDS011;2932;52.400;9.558;2023-08-21T14:10:00;2.38;;;0.70;;
5811;SDS011;2932;52.400;9.558;2023-08-21T14:12:29;3.47;;;0.60;;
5811;SDS011;2932;52.400;9.558;2023-08-21T14:14:55;1.35;;;0.60;;
5811;SDS011;2932;52.400;9.558;2023-08-21T14:17:21;2.17;;;0.73;;
5811;SDS011;2932;52.400;9.558;2023-08-21T14:19:46;1.70;;;0.82;;
5811;SDS011;2932;52.400;9.558;2023-08-21T14:22:12;1.90;;;0.68;;
5811;SDS011;2932;52.400;9.558;2023-08-21T14:24:37;2.03;;;0.70;;
5811;SDS011;2932;52.400;9.558;2023-08-21T14:27:02;4.47;;;0.90;;
5811;SDS011;2932;52.400;9.558;2023-08-21T14:29:28;1.50;;;0.88;;
5811;SDS011;2932;52.400;9.558;2023-08-21T14:31:53;1.90;;;0.60;;
5811;SDS011;2932;52.400;9.558;2023-08-21T14:34:19;4.25;;;0.90;;
5811;SDS011;2932;52.400;9.558;2023-08-21T14:36:45;2.70;;;0.85;;
5811;SDS011;2932;52.400;9.558;2023-08-21T14:39:11;3.03;;;1.08;;
5811;SDS011;2932;52.400;9.558;2023-08-21T14:41:37;1.88;;;1.05;;
5811;SDS011;2932;52.400;9.558;2023-08-21T14:44:03;2.72;;;0.88;;
5811;SDS011;2932;52.400;9.558;2023-08-21T14:46:28;1.13;;;0.70;;
5811;SDS011;2932;52.400;9.558;2023-08-21T14:48:54;2.25;;;1.15;;
5811;SDS011;2932;52.400;9.558;2023-08-21T14:51:19;1.90;;;0.85;;
5811;SDS011;2932;52.400;9.558;2023-08-21T14:53:44;1.83;;;0.70;;
5811;SDS011;2932;52.400;9.558;2023-08-21T14:56:10;1.65;;;0.90;;
5811;SDS011;2932;52.400;9.558;2023-08-21T14:58:35;4.00;;;1.00;;
5811;SDS011;2932;52.400;9.558;2023-08-21T15:01:00;2.38;;;1.17;;
5811;SDS011;2932;52.400;9.558;2023-08-21T15:03:26;3.28;;;1.70;;
5811;SDS011;2932;52.400;9.558;2023-08-21T15:05:52;2.88;;;0.88;;
5811;SDS011;2932;52.400;9.558;2023-08-21T15:08:17;3.70;;;0.90;;
5811;SDS011;2932;52.400;9.558;2023-08-21T15:10:42;1.80;;;1.05;;
5811;SDS011;2932;52.400;9.558;2023-08-21T15:13:08;0.98;;;0.75;;
5811;SDS011;2932;52.400;9.558;2023-08-21T15:15:33;2.13;;;0.90;;
5811;SDS011;2932;52.400;9.558;2023-08-21T15:17:59;3.13;;;1.40;;
5811;SDS011;2932;52.400;9.558;2023-08-21T15:20:24;2.90;;;1.10;;
5811;SDS011;2932;52.400;9.558;2023-08-21T15:22:49;2.78;;;1.17;;
5811;SDS011;2932;52.400;9.558;2023-08-21T15:25:16;1.30;;;1.00;;
5811;SDS011;2932;52.400;9.558;2023-08-21T15:27:41;3.60;;;1.27;;
5811;SDS011;2932;52.400;9.558;2023-08-21T15:30:07;2.33;;;0.93;;